createdAt,value
2018-07-13T00:02:22.623Z,8.87
2018-07-13T00:04:50.024Z,8.67
2018-07-13T00:07:17.189Z,8.17
2018-07-13T00:09:44.378Z,8.93
2018-07-13T00:12:11.744Z,9.03
2018-07-13T00:14:49.886Z,8.73
2018-07-13T00:17:17.073Z,8.97
2018-07-13T00:19:44.231Z,8.77
2018-07-13T00:22:11.439Z,9.00
2018-07-13T00:24:38.720Z,9.78
2018-07-13T00:27:06.004Z,8.83
2018-07-13T00:29:33.138Z,9.00
2018-07-13T00:32:00.434Z,8.67
2018-07-13T00:34:27.558Z,7.97
2018-07-13T00:36:54.702Z,7.70
2018-07-13T00:39:21.868Z,7.87
2018-07-13T00:41:48.970Z,7.90
2018-07-13T00:44:16.067Z,7.57
2018-07-13T00:46:43.398Z,7.87
2018-07-13T00:49:10.913Z,8.40
2018-07-13T00:51:38.986Z,8.03
2018-07-13T00:54:06.383Z,8.47
2018-07-13T00:56:33.690Z,8.27
2018-07-13T00:59:00.861Z,7.87
2018-07-13T01:01:28.648Z,7.90
2018-07-13T01:03:55.791Z,8.33
2018-07-13T01:06:22.944Z,8.73
2018-07-13T01:08:50.135Z,8.77
2018-07-13T01:11:17.390Z,7.50
2018-07-13T01:13:44.595Z,7.67
2018-07-13T01:16:11.903Z,8.10
2018-07-13T01:18:39.176Z,8.67
2018-07-13T01:21:06.409Z,8.23
2018-07-13T01:23:33.612Z,7.73
2018-07-13T01:26:00.727Z,8.00
2018-07-13T01:28:27.844Z,8.70
2018-07-13T01:30:55.944Z,8.73
2018-07-13T01:33:24.186Z,8.43
2018-07-13T01:35:51.344Z,8.33
2018-07-13T01:38:18.646Z,8.33
2018-07-13T01:40:45.837Z,8.50
2018-07-13T01:43:13.669Z,8.67
2018-07-13T01:45:40.909Z,8.30
2018-07-13T01:48:08.358Z,8.50
2018-07-13T01:50:35.637Z,8.33
2018-07-13T01:53:03.916Z,8.23
2018-07-13T01:55:31.189Z,8.37
2018-07-13T01:57:58.287Z,8.63
2018-07-13T02:00:25.603Z,8.80
2018-07-13T02:02:52.763Z,8.97
2018-07-13T02:05:19.906Z,8.83
2018-07-13T02:07:47.128Z,9.07
2018-07-13T02:10:14.544Z,9.43
2018-07-13T02:12:41.747Z,10.10
2018-07-13T02:15:08.998Z,8.77
2018-07-13T02:17:36.178Z,8.17
2018-07-13T02:20:03.464Z,9.10
2018-07-13T02:22:30.731Z,8.97
2018-07-13T02:24:57.983Z,9.63
2018-07-13T02:27:25.140Z,9.30
2018-07-13T02:29:52.460Z,9.57
2018-07-13T02:32:19.703Z,8.37
2018-07-13T02:34:46.863Z,9.03
2018-07-13T02:37:14.157Z,9.17
2018-07-13T02:39:41.321Z,9.50
2018-07-13T02:42:08.491Z,9.20
2018-07-13T02:44:35.804Z,9.70
2018-07-13T02:47:02.984Z,9.33
2018-07-13T02:49:30.248Z,9.87
2018-07-13T02:51:57.536Z,9.73
2018-07-13T02:54:24.935Z,9.50
2018-07-13T02:56:52.073Z,10.30
2018-07-13T02:59:19.308Z,9.53
2018-07-13T03:01:46.674Z,11.47
2018-07-13T03:04:13.878Z,10.70
2018-07-13T03:06:41.270Z,10.83
2018-07-13T03:09:10.071Z,10.63
2018-07-13T03:11:37.248Z,11.17
2018-07-13T03:14:05.116Z,10.57
2018-07-13T03:16:32.367Z,10.73
2018-07-13T03:18:59.524Z,10.27
2018-07-13T03:21:26.812Z,10.97
2018-07-13T03:23:53.941Z,12.00
2018-07-13T03:26:21.135Z,11.17
2018-07-13T03:28:48.548Z,11.10
2018-07-13T03:31:15.824Z,10.60
2018-07-13T03:33:43.110Z,11.63
2018-07-13T03:36:10.403Z,12.07
2018-07-13T03:38:37.643Z,11.20
2018-07-13T03:41:04.787Z,11.67
2018-07-13T03:43:32.193Z,11.47
2018-07-13T03:45:59.382Z,11.77
2018-07-13T03:48:26.567Z,11.90
2018-07-13T03:50:53.900Z,11.70
2018-07-13T03:53:21.076Z,11.73
2018-07-13T03:55:48.326Z,12.33
2018-07-13T03:58:15.701Z,12.43
2018-07-13T04:00:42.993Z,12.53
2018-07-13T04:03:10.168Z,11.50
2018-07-13T04:05:37.494Z,11.53
2018-07-13T04:08:04.800Z,11.60
2018-07-13T04:10:31.998Z,12.77
2018-07-13T04:12:59.270Z,14.07
2018-07-13T04:15:27.526Z,16.60
2018-07-13T04:17:54.674Z,13.53
2018-07-13T04:20:21.920Z,13.30
2018-07-13T04:22:49.989Z,11.83
2018-07-13T04:25:17.224Z,12.10
2018-07-13T04:27:45.448Z,11.40
2018-07-13T04:30:12.728Z,11.93
2018-07-13T04:32:39.876Z,11.27
2018-07-13T04:35:07.053Z,11.23
2018-07-13T04:37:34.210Z,11.77
2018-07-13T04:40:02.427Z,11.77
2018-07-13T04:42:29.599Z,12.80
2018-07-13T04:44:57.467Z,11.87
2018-07-13T04:47:24.747Z,12.93
2018-07-13T04:49:53.043Z,12.30
2018-07-13T04:52:22.656Z,11.83
2018-07-13T04:54:49.936Z,12.17
2018-07-13T04:57:17.392Z,11.27
2018-07-13T04:59:44.714Z,11.73
2018-07-13T05:02:12.529Z,11.40
2018-07-13T05:04:39.891Z,11.43
2018-07-13T05:07:07.111Z,11.83
2018-07-13T05:09:34.496Z,11.37
2018-07-13T05:12:01.792Z,10.90
2018-07-13T05:14:29.056Z,11.50
2018-07-13T05:16:57.599Z,10.00
2018-07-13T05:19:25.469Z,10.87
2018-07-13T05:21:54.643Z,10.73
2018-07-13T05:24:22.529Z,9.87
2018-07-13T05:26:52.555Z,9.93
2018-07-13T05:29:22.389Z,10.13
2018-07-13T05:31:50.018Z,10.67
2018-07-13T05:34:17.834Z,11.40
2018-07-13T05:36:46.511Z,11.17
2018-07-13T05:39:15.802Z,11.10
2018-07-13T05:41:43.879Z,11.43
2018-07-13T05:44:12.126Z,10.03
2018-07-13T05:46:40.243Z,11.87
2018-07-13T05:49:07.735Z,11.47
2018-07-13T05:51:35.018Z,12.57
2018-07-13T05:54:02.547Z,11.50
2018-07-13T05:56:31.294Z,11.90
2018-07-13T05:58:58.802Z,12.57
2018-07-13T06:01:28.511Z,11.60
2018-07-13T06:03:56.721Z,12.10
2018-07-13T06:06:24.456Z,12.70
2018-07-13T06:08:52.621Z,12.17
2018-07-13T06:11:20.703Z,11.10
2018-07-13T06:13:48.597Z,11.73
2018-07-13T06:16:17.614Z,11.87
2018-07-13T06:18:45.317Z,12.00
2018-07-13T06:21:14.734Z,12.23
2018-07-13T06:23:42.212Z,13.88
2018-07-13T06:26:09.860Z,12.37
2018-07-13T06:28:38.199Z,11.40
2018-07-13T06:31:06.391Z,12.63
2018-07-13T06:33:35.485Z,13.20
2018-07-13T06:36:02.864Z,13.43
2018-07-13T06:38:30.105Z,13.83
2018-07-13T06:40:57.420Z,13.57
2018-07-13T06:43:24.757Z,14.35
2018-07-13T06:45:52.016Z,14.33
2018-07-13T06:48:19.278Z,13.73
2018-07-13T06:50:46.663Z,14.67
2018-07-13T06:53:14.217Z,14.87
2018-07-13T06:55:41.554Z,14.67
2018-07-13T06:58:20.238Z,14.47
2018-07-13T07:00:53.399Z,14.70
2018-07-13T07:03:20.840Z,15.23
2018-07-13T07:06:11.997Z,14.10
2018-07-13T07:08:42.948Z,14.20
2018-07-13T07:11:10.241Z,14.10
2018-07-13T07:13:39.474Z,14.47
2018-07-13T07:16:10.703Z,13.50
2018-07-13T07:18:37.929Z,13.27
2018-07-13T07:21:05.432Z,13.70
2018-07-13T07:23:37.593Z,13.40
2018-07-13T07:26:05.552Z,12.67
2018-07-13T07:28:32.990Z,13.27
2018-07-13T07:31:00.898Z,12.33
2018-07-13T07:33:28.266Z,12.70
2018-07-13T07:35:55.468Z,12.37
2018-07-13T07:38:22.780Z,14.07
2018-07-13T07:40:50.222Z,13.33
2018-07-13T07:43:18.122Z,13.17
2018-07-13T07:45:45.504Z,13.00
2018-07-13T07:48:13.381Z,13.27
2018-07-13T07:50:40.592Z,13.33
2018-07-13T07:53:07.786Z,14.07
2018-07-13T07:55:35.025Z,14.07
2018-07-13T07:58:02.226Z,13.00
2018-07-13T08:00:31.425Z,12.90
2018-07-13T08:02:58.797Z,13.40
2018-07-13T08:05:26.487Z,13.50
2018-07-13T08:07:53.661Z,13.07
2018-07-13T08:10:20.985Z,13.50
2018-07-13T08:12:48.254Z,13.20
2018-07-13T08:15:19.195Z,14.03
2018-07-13T08:17:46.484Z,13.20
2018-07-13T08:20:19.602Z,13.93
2018-07-13T08:23:05.149Z,13.70
2018-07-13T08:25:32.393Z,14.13
2018-07-13T08:28:00.573Z,13.80
2018-07-13T08:30:31.268Z,15.63
2018-07-13T08:32:58.421Z,14.67
2018-07-13T08:35:26.814Z,14.70
2018-07-13T08:37:54.092Z,14.83
2018-07-13T08:40:22.620Z,15.50
2018-07-13T08:42:49.882Z,15.63
2018-07-13T08:45:17.379Z,16.27
2018-07-13T08:47:45.171Z,18.53
2018-07-13T08:50:12.363Z,17.60
2018-07-13T08:52:39.802Z,18.07
2018-07-13T08:55:11.230Z,18.23
2018-07-13T08:57:39.144Z,18.90
2018-07-13T09:00:06.740Z,17.57
2018-07-13T09:02:33.876Z,17.87
2018-07-13T09:05:01.183Z,18.10
2018-07-13T09:07:30.497Z,18.67
2018-07-13T09:09:59.953Z,18.47
2018-07-13T09:12:27.608Z,18.40
2018-07-13T09:14:54.797Z,18.43
2018-07-13T09:17:22.602Z,19.07
2018-07-13T09:19:49.933Z,17.43
2018-07-13T09:22:17.296Z,17.87
2018-07-13T09:24:44.549Z,17.33
2018-07-13T09:27:11.736Z,15.90
2018-07-13T09:29:38.975Z,16.80
2018-07-13T09:32:06.271Z,16.27
2018-07-13T09:34:33.664Z,15.23
2018-07-13T09:37:00.892Z,16.53
2018-07-13T09:39:28.047Z,15.33
2018-07-13T09:41:55.406Z,15.00
2018-07-13T09:44:22.585Z,16.87
2018-07-13T09:46:50.036Z,17.70
2018-07-13T09:49:17.293Z,17.57
2018-07-13T09:51:44.515Z,16.77
2018-07-13T09:54:11.883Z,17.40
2018-07-13T09:56:38.995Z,18.65
2018-07-13T09:59:07.220Z,17.27
2018-07-13T10:01:34.585Z,15.87
2018-07-13T10:04:02.869Z,16.33
2018-07-13T10:06:30.111Z,16.10
2018-07-13T10:08:57.382Z,16.30
2018-07-13T10:11:24.591Z,15.17
2018-07-13T10:13:51.889Z,14.73
2018-07-13T10:16:19.416Z,14.07
2018-07-13T10:18:46.803Z,13.57
2018-07-13T10:21:14.011Z,13.10
2018-07-13T10:23:42.013Z,13.20
2018-07-13T10:26:17.802Z,13.67
2018-07-13T10:28:45.080Z,13.67
2018-07-13T10:31:13.459Z,12.43
2018-07-13T10:33:41.132Z,13.10
2018-07-13T10:36:11.166Z,13.20
2018-07-13T10:38:38.406Z,13.30
2018-07-13T10:41:05.757Z,11.90
2018-07-13T10:43:33.341Z,12.30
2018-07-13T10:46:00.572Z,11.40
2018-07-13T10:48:27.957Z,10.47
2018-07-13T10:50:55.111Z,11.43
2018-07-13T10:53:22.540Z,11.33
2018-07-13T10:55:49.952Z,10.53
2018-07-13T10:58:17.166Z,9.60
2018-07-13T11:00:44.509Z,8.83
2018-07-13T11:03:11.824Z,8.97
2018-07-13T11:05:38.971Z,9.40
2018-07-13T11:08:06.388Z,9.50
2018-07-13T11:10:33.934Z,10.13
2018-07-13T11:13:01.419Z,9.23
2018-07-13T11:15:28.576Z,9.33
2018-07-13T11:17:55.890Z,9.20
2018-07-13T11:20:23.059Z,9.33
2018-07-13T11:22:50.320Z,9.20
2018-07-13T11:25:17.689Z,7.73
2018-07-13T11:27:44.885Z,8.10
2018-07-13T11:30:12.032Z,8.03
2018-07-13T11:32:39.230Z,7.60
2018-07-13T11:35:06.432Z,8.33
2018-07-13T11:37:33.597Z,8.63
2018-07-13T11:40:00.782Z,8.70
2018-07-13T11:42:28.238Z,8.77
2018-07-13T11:44:55.461Z,8.73
2018-07-13T11:47:22.970Z,9.53
2018-07-13T11:49:50.229Z,10.20
2018-07-13T11:52:17.458Z,10.53
2018-07-13T11:54:44.915Z,11.60
2018-07-13T11:57:12.593Z,10.13
2018-07-13T11:59:39.828Z,10.30
2018-07-13T12:02:07.193Z,10.77
2018-07-13T12:04:34.424Z,9.20
2018-07-13T12:07:01.613Z,8.83
2018-07-13T12:09:28.927Z,8.73
2018-07-13T12:11:57.165Z,8.43
2018-07-13T12:14:24.415Z,8.37
2018-07-13T12:16:51.562Z,7.77
2018-07-13T12:19:18.758Z,8.23
2018-07-13T12:21:46.028Z,8.10
2018-07-13T12:24:13.375Z,7.50
2018-07-13T12:26:40.663Z,7.03
2018-07-13T12:29:07.828Z,8.10
2018-07-13T12:31:35.335Z,6.40
2018-07-13T12:34:02.456Z,7.77
2018-07-13T12:36:29.692Z,7.50
2018-07-13T12:38:56.873Z,7.43
2018-07-13T12:41:24.149Z,6.73
2018-07-13T12:43:51.500Z,5.30
2018-07-13T12:46:18.889Z,4.30
2018-07-13T12:48:46.173Z,3.80
2018-07-13T12:51:13.333Z,3.73
2018-07-13T12:53:40.903Z,3.50
2018-07-13T12:56:08.110Z,3.97
2018-07-13T12:58:36.262Z,4.50
2018-07-13T13:01:03.572Z,4.70
2018-07-13T13:03:30.980Z,4.77
2018-07-13T13:05:58.343Z,5.83
2018-07-13T13:08:25.544Z,5.20
2018-07-13T13:10:52.925Z,6.00
2018-07-13T13:13:20.183Z,5.53
2018-07-13T13:15:47.402Z,5.73
2018-07-13T13:18:14.613Z,5.27
2018-07-13T13:20:41.920Z,5.40
2018-07-13T13:23:09.129Z,5.57
2018-07-13T13:25:36.524Z,5.47
2018-07-13T13:28:03.793Z,5.70
2018-07-13T13:30:31.139Z,5.60
2018-07-13T13:32:58.280Z,5.43
2018-07-13T13:35:25.527Z,5.90
2018-07-13T13:37:53.245Z,5.17
2018-07-13T13:40:20.580Z,5.07
2018-07-13T13:42:47.777Z,5.87
2018-07-13T13:45:14.957Z,5.40
2018-07-13T13:47:42.164Z,5.37
2018-07-13T13:50:10.093Z,4.90
2018-07-13T13:52:37.432Z,4.90
2018-07-13T13:55:04.873Z,4.47
2018-07-13T13:57:32.044Z,4.97
2018-07-13T13:59:59.778Z,4.80
2018-07-13T14:02:26.919Z,5.03
2018-07-13T14:04:54.102Z,4.57
2018-07-13T14:07:21.328Z,4.10
2018-07-13T14:09:48.575Z,4.20
2018-07-13T14:12:15.956Z,3.93
2018-07-13T14:14:43.189Z,3.97
2018-07-13T14:17:10.637Z,4.00
2018-07-13T14:19:37.766Z,4.27
2018-07-13T14:22:05.023Z,4.73
2018-07-13T14:24:33.155Z,4.40
2018-07-13T14:27:00.289Z,4.80
2018-07-13T14:29:27.659Z,4.80
2018-07-13T14:31:54.871Z,4.63
2018-07-13T14:34:22.001Z,4.13
2018-07-13T14:36:49.431Z,4.60
2018-07-13T14:39:16.729Z,3.90
2018-07-13T14:41:43.868Z,4.10
2018-07-13T14:44:11.050Z,4.30
2018-07-13T14:46:39.322Z,4.40
2018-07-13T14:49:07.251Z,4.40
2018-07-13T14:51:34.484Z,4.37
2018-07-13T14:54:01.816Z,4.07
2018-07-13T14:56:29.006Z,4.10
2018-07-13T14:58:56.177Z,4.20
2018-07-13T15:01:23.395Z,3.33
2018-07-13T15:03:50.538Z,3.73
2018-07-13T15:06:19.540Z,4.20
2018-07-13T15:08:46.531Z,3.97
2018-07-13T15:11:13.658Z,3.90
2018-07-13T15:13:41.286Z,4.17
2018-07-13T15:16:08.465Z,3.70
2018-07-13T15:18:35.649Z,4.03
2018-07-13T15:21:02.876Z,3.22
2018-07-13T15:23:30.484Z,3.40
2018-07-13T15:25:57.631Z,3.45
2018-07-13T15:28:24.895Z,4.10
2018-07-13T15:30:52.070Z,3.92
2018-07-13T15:33:19.233Z,3.90
2018-07-13T15:35:46.508Z,3.55
2018-07-13T15:38:13.660Z,3.33
2018-07-13T15:40:40.894Z,3.87
2018-07-13T15:43:08.164Z,3.60
2018-07-13T15:45:35.297Z,3.85
2018-07-13T15:48:02.411Z,3.80
2018-07-13T15:50:29.618Z,3.35
2018-07-13T15:52:56.774Z,3.90
2018-07-13T15:55:28.555Z,3.62
2018-07-13T15:57:55.766Z,3.80
2018-07-13T16:00:22.919Z,3.70
2018-07-13T16:02:50.057Z,4.00
2018-07-13T16:05:17.299Z,4.50
2018-07-13T16:07:44.445Z,4.45
2018-07-13T16:10:11.564Z,5.00
2018-07-13T16:12:38.715Z,4.70
2018-07-13T16:15:05.940Z,4.57
2018-07-13T16:17:33.030Z,4.60
2018-07-13T16:20:00.570Z,4.40
2018-07-13T16:22:29.745Z,4.90
2018-07-13T16:24:56.879Z,4.73
2018-07-13T16:27:25.136Z,4.70
2018-07-13T16:29:52.294Z,4.90
2018-07-13T16:32:19.455Z,4.20
2018-07-13T16:34:46.642Z,4.50
2018-07-13T16:37:13.838Z,4.97
2018-07-13T16:39:41.070Z,5.37
2018-07-13T16:42:08.257Z,4.83
2018-07-13T16:44:35.367Z,5.37
2018-07-13T16:47:02.512Z,5.30
2018-07-13T16:49:29.989Z,5.20
2018-07-13T16:51:57.146Z,5.00
2018-07-13T16:54:26.354Z,5.13
2018-07-13T16:56:53.492Z,5.17
2018-07-13T16:59:21.225Z,5.07
2018-07-13T17:01:48.343Z,4.47
2018-07-13T17:04:16.924Z,4.80
2018-07-13T17:06:44.060Z,4.13
2018-07-13T17:09:11.638Z,4.57
2018-07-13T17:11:39.339Z,4.30
2018-07-13T17:14:07.462Z,4.67
2018-07-13T17:16:34.589Z,4.00
2018-07-13T17:19:03.471Z,4.43
2018-07-13T17:21:30.636Z,4.73
2018-07-13T17:23:57.821Z,4.33
2018-07-13T17:26:25.210Z,4.50
2018-07-13T17:28:52.317Z,4.60
2018-07-13T17:31:19.434Z,4.93
2018-07-13T17:33:46.602Z,4.97
2018-07-13T17:36:13.735Z,5.00
2018-07-13T17:38:40.922Z,5.17
2018-07-13T17:41:08.167Z,4.97
2018-07-13T17:43:35.289Z,5.27
2018-07-13T17:46:02.416Z,4.23
2018-07-13T17:48:30.589Z,4.43
2018-07-13T17:50:57.899Z,4.37
2018-07-13T17:53:25.046Z,4.20
2018-07-13T17:55:52.403Z,4.40
2018-07-13T17:58:19.517Z,4.33
2018-07-13T18:00:46.649Z,3.77
2018-07-13T18:03:13.955Z,4.00
2018-07-13T18:05:41.064Z,3.40
2018-07-13T18:08:08.183Z,3.33
2018-07-13T18:10:37.286Z,3.00
2018-07-13T18:13:04.679Z,2.90
2018-07-13T18:15:31.840Z,3.10
2018-07-13T18:17:59.799Z,3.10
2018-07-13T18:20:27.984Z,3.47
2018-07-13T18:22:55.118Z,3.20
2018-07-13T18:25:22.332Z,3.30
2018-07-13T18:27:49.444Z,3.43
2018-07-13T18:30:17.107Z,3.90
2018-07-13T18:32:44.293Z,3.70
2018-07-13T18:35:11.401Z,3.73
2018-07-13T18:37:38.489Z,4.03
2018-07-13T18:40:05.788Z,4.00
2018-07-13T18:42:32.917Z,4.30
2018-07-13T18:45:00.474Z,4.47
2018-07-13T18:47:27.654Z,4.33
2018-07-13T18:49:54.991Z,4.13
2018-07-13T18:52:22.083Z,4.30
2018-07-13T18:54:49.472Z,4.13
2018-07-13T18:57:16.687Z,4.53
2018-07-13T18:59:43.812Z,4.60
2018-07-13T19:02:11.121Z,4.97
2018-07-13T19:04:38.387Z,4.17
2018-07-13T19:07:07.496Z,4.87
2018-07-13T19:09:34.867Z,4.40
2018-07-13T19:12:02.249Z,4.87
2018-07-13T19:14:32.206Z,5.23
2018-07-13T19:17:00.073Z,5.20
2018-07-13T19:19:27.311Z,5.37
2018-07-13T19:21:54.562Z,5.13
2018-07-13T19:24:22.781Z,4.80
2018-07-13T19:26:49.934Z,4.50
2018-07-13T19:29:17.120Z,4.60
2018-07-13T19:31:44.771Z,4.57
2018-07-13T19:34:11.922Z,5.30
2018-07-13T19:36:39.164Z,5.20
2018-07-13T19:39:07.221Z,8.50
2018-07-13T19:41:34.318Z,6.10
2018-07-13T19:44:01.480Z,5.30
2018-07-13T19:46:29.643Z,5.60
2018-07-13T19:48:57.950Z,5.90
2018-07-13T19:51:26.806Z,6.17
2018-07-13T19:53:54.122Z,6.30
2018-07-13T19:56:21.444Z,6.67
2018-07-13T19:58:48.620Z,8.10
2018-07-13T20:01:16.008Z,8.78
2018-07-13T20:03:43.119Z,8.10
2018-07-13T20:06:11.221Z,10.00
2018-07-13T20:08:38.479Z,10.60
2018-07-13T20:11:06.611Z,9.03
2018-07-13T20:13:33.885Z,9.10
2018-07-13T20:16:02.006Z,8.63
2018-07-13T20:18:29.118Z,8.57
2018-07-13T20:20:56.309Z,8.20
2018-07-13T20:23:23.551Z,8.00
2018-07-13T20:25:50.768Z,8.03
2018-07-13T20:28:17.909Z,8.53
2018-07-13T20:30:45.203Z,7.67
2018-07-13T20:33:12.297Z,8.13
2018-07-13T20:35:39.471Z,7.70
2018-07-13T20:38:06.730Z,7.33
2018-07-13T20:40:35.734Z,7.17
2018-07-13T20:43:02.896Z,6.53
2018-07-13T20:45:30.072Z,7.07
2018-07-13T20:47:57.301Z,6.10
2018-07-13T20:50:25.391Z,7.60
2018-07-13T20:52:52.602Z,10.60
2018-07-13T20:55:19.828Z,11.93
2018-07-13T20:57:46.971Z,10.97
2018-07-13T21:00:16.193Z,10.30
2018-07-13T21:02:43.327Z,9.10
2018-07-13T21:05:10.464Z,8.80
2018-07-13T21:07:37.705Z,8.80
2018-07-13T21:10:04.909Z,7.87
2018-07-13T21:12:32.045Z,7.97
2018-07-13T21:14:59.281Z,7.60
2018-07-13T21:17:26.399Z,8.13
2018-07-13T21:19:54.060Z,8.03
2018-07-13T21:22:21.192Z,8.57
2018-07-13T21:24:48.585Z,8.43
2018-07-13T21:27:15.730Z,8.60
2018-07-13T21:29:43.969Z,8.53
2018-07-13T21:32:11.138Z,8.33
2018-07-13T21:34:39.123Z,9.10
2018-07-13T21:37:06.400Z,8.97
2018-07-13T21:39:33.622Z,9.43
2018-07-13T21:42:00.751Z,8.80
2018-07-13T21:44:28.926Z,8.67
2018-07-13T21:46:56.077Z,8.27
2018-07-13T21:49:23.189Z,8.47
2018-07-13T21:51:50.395Z,8.53
2018-07-13T21:54:17.801Z,7.93
2018-07-13T21:56:44.948Z,8.87
2018-07-13T21:59:12.203Z,8.53
2018-07-13T22:01:40.256Z,9.40
2018-07-13T22:04:07.369Z,9.17
2018-07-13T22:06:34.583Z,8.50
2018-07-13T22:09:01.711Z,8.07
2018-07-13T22:11:29.007Z,8.37
2018-07-13T22:13:56.217Z,8.57
2018-07-13T22:16:24.215Z,8.17
2018-07-13T22:18:51.352Z,8.53
2018-07-13T22:21:18.604Z,7.73
2018-07-13T22:23:45.726Z,8.63
2018-07-13T22:26:12.830Z,8.53
2018-07-13T22:28:40.120Z,10.43
2018-07-13T22:31:09.306Z,10.80
2018-07-13T22:33:36.480Z,12.50
2018-07-13T22:36:03.800Z,9.60
2018-07-13T22:38:30.909Z,9.97
2018-07-13T22:40:58.245Z,11.23
2018-07-13T22:43:25.508Z,14.17
2018-07-13T22:45:56.143Z,12.67
2018-07-13T22:48:23.290Z,10.65
2018-07-13T22:50:50.441Z,9.20
2018-07-13T22:53:17.600Z,9.10
2018-07-13T22:55:44.775Z,9.53
2018-07-13T22:58:12.113Z,9.50
2018-07-13T23:00:39.332Z,9.10
2018-07-13T23:03:06.477Z,9.70
2018-07-13T23:05:33.786Z,11.83
2018-07-13T23:08:00.964Z,12.63
2018-07-13T23:10:28.079Z,13.90
2018-07-13T23:12:55.327Z,14.40
2018-07-13T23:15:22.467Z,13.97
2018-07-13T23:17:49.741Z,13.73
2018-07-13T23:20:16.904Z,13.47
2018-07-13T23:22:45.191Z,14.20
2018-07-13T23:25:12.334Z,14.97
2018-07-13T23:27:45.836Z,12.73
2018-07-13T23:30:12.941Z,11.90
2018-07-13T23:32:40.057Z,10.83
2018-07-13T23:35:07.436Z,10.77
2018-07-13T23:37:34.592Z,9.97
2018-07-13T23:40:01.739Z,10.30
2018-07-13T23:42:28.971Z,10.93
2018-07-13T23:44:56.310Z,10.93
2018-07-13T23:47:23.499Z,11.50
2018-07-13T23:49:50.635Z,10.93
2018-07-13T23:52:17.796Z,13.10
2018-07-13T23:54:56.143Z,11.67
2018-07-13T23:57:23.285Z,12.03
2018-07-13T23:59:50.420Z,11.60
